Address 0x0131bb1e8165b391f104ebb5b0a6df4b29fdc8f5 3

 
 
Txn Hash Method
Block
From
To
Value [Txn Fee]
0xaae032d2bf793b1b23269835dbd3fb03b29022a8774f49a42dbaa515920f7b58Deposit94955332021-07-26 14:02:1759 days 1 hr ago0x0131bb1e8165b391f104ebb5b0a6df4b29fdc8f5OUT 0x773de8d0df0451ee0e22a3475df724f6cfc4056b0 BNB0.0005864
0xfd4d6112861ed1e51ce8e8af2750520541dbb536fae403d75a4881325a7aa9e1Approve94955242021-07-26 14:01:4459 days 1 hr ago0x0131bb1e8165b391f104ebb5b0a6df4b29fdc8f5OUT CafeSwap: BREW Token0 BNB0.000222515
0xfa9d29d2d71e2722470b4e015118871050fd7272e65d4894cf7e6aebcfdef87eWithdraw94955112021-07-26 14:01:0159 days 1 hr ago0x0131bb1e8165b391f104ebb5b0a6df4b29fdc8f5OUT 0xc4dc26677aef3fe8a0b615d2080f044289901b7f0 BNB0.00042787
0x48983d35193ccede778a8636075cc70c6dc2541b56d0e033a1df20095b5ebc87Deposit94955012021-07-26 14:00:3059 days 1 hr ago0x0131bb1e8165b391f104ebb5b0a6df4b29fdc8f5OUT 0xc4dc26677aef3fe8a0b615d2080f044289901b7f0 BNB0.00038126
0xf55bcd4c2ccd8498610e98ed091d2439cd00a173706b78873e1a9dabe7e686a3Deposit94954782021-07-26 13:59:2159 days 1 hr ago0x0131bb1e8165b391f104ebb5b0a6df4b29fdc8f5OUT 0x6db62e510a24600a373a4c3a918bad9ddaa9c3180 BNB0.000876045
0x459d49abe142fb407835c4b42f93e47cbfe1fe1be15802579973692d4f86853aHarvest94954582021-07-26 13:58:2159 days 1 hr ago0x0131bb1e8165b391f104ebb5b0a6df4b29fdc8f5OUT 0x6db62e510a24600a373a4c3a918bad9ddaa9c3180 BNB0.00088619
0x57b5a559f07562b1024aea9c12b47c689f18b738ac09c4d279893406163218d2Deposit73295302021-05-11 20:20:44134 days 19 hrs ago0x0131bb1e8165b391f104ebb5b0a6df4b29fdc8f5OUT 0xc4dc26677aef3fe8a0b615d2080f044289901b7f0 BNB0.001003772
0x5d1cb79b1a4ab76ecceca93321b6907686b11ac9a75e87ced1e2736ccc01eecbDeposit72187872021-05-07 16:37:47138 days 22 hrs ago0x0131bb1e8165b391f104ebb5b0a6df4b29fdc8f5OUT 0xc4dc26677aef3fe8a0b615d2080f044289901b7f0 BNB0.0006074
0xd5219d82c004fbd1cbc612d3d3bac10ad8ea08df3a09d1ee5b9e2e96549a4775Approve72187812021-05-07 16:37:29138 days 22 hrs ago0x0131bb1e8165b391f104ebb5b0a6df4b29fdc8f5OUT CafeSwap: BREW Token0 BNB0.000222515
0x7ef6476ba0b318cbce3ccd83bba83feb880a6582059be13188a0fb82df5ab3330x7c02520072187302021-05-07 16:34:56138 days 22 hrs ago0x0131bb1e8165b391f104ebb5b0a6df4b29fdc8f5OUT 1inch: Router V30 BNB0.001669295
0x3252e69ef23a14c659698c4a35d272a49b0143752605626506a26625991cb8d1Approve72187222021-05-07 16:34:32138 days 22 hrs ago0x0131bb1e8165b391f104ebb5b0a6df4b29fdc8f5OUT Berry Data: BRY Token0 BNB0.000247405
0xb8775e7e838eccf31759afbc1fd5b29bf2afe59ac2c4bb88b3a5e2859290aa1dApprove72186632021-05-07 16:31:24138 days 22 hrs ago0x0131bb1e8165b391f104ebb5b0a6df4b29fdc8f5OUT Berry Data: BRY Token0 BNB0.000247525
0x9dfd1a93b8a8a11bd68dccc1cf5ccfb96e139006531cb4d3921c68ace9e442e60x7c02520072186322021-05-07 16:29:51138 days 22 hrs ago0x0131bb1e8165b391f104ebb5b0a6df4b29fdc8f5OUT 1inch: Router V30 BNB0.0013102
0xef24bacb777ab00912e4fdfcbd1f3b5b4074ec1b3e19cf342bbcaa1a97bb4c20Approve72186252021-05-07 16:29:30138 days 22 hrs ago0x0131bb1e8165b391f104ebb5b0a6df4b29fdc8f5OUT Berry Data: BRY Token0 BNB0.000247405
0x41656146bbaed7bf82c6edad3c6b0f58e47861da2ad5d7c6c0150d2c9c7f8b42Harvest70823142021-05-02 20:50:17143 days 18 hrs ago0x0131bb1e8165b391f104ebb5b0a6df4b29fdc8f5OUT 0x6db62e510a24600a373a4c3a918bad9ddaa9c3180 BNB0.00088619
0xb5c52422e094e26a64a164c62336cb0445f14237565b8aa2a0186b80ee2095f00x7c02520070822482021-05-02 20:46:38143 days 18 hrs ago0x0131bb1e8165b391f104ebb5b0a6df4b29fdc8f5OUT 1inch: Router V30 BNB0.002361175
0x9d85c6ee42082337c092a7a127abb82e6b637e66be241e6a7725577816be97590x7c02520070822142021-05-02 20:44:50143 days 18 hrs ago0x0131bb1e8165b391f104ebb5b0a6df4b29fdc8f5OUT 1inch: Router V30 BNB0.002896975
0x3822fdeb869612ac8c6c00ae7e1d90fd22c2beb8a529523aea449b4bb5a7f2970x7c02520070821732021-05-02 20:42:47143 days 18 hrs ago0x0131bb1e8165b391f104ebb5b0a6df4b29fdc8f5OUT 1inch: Router V30 BNB0.0024492
0xaf10e53751efc84cbbe38cf2539ff0ffa9438b772b96c0cc397faa03f1ec0b87Approve70821492021-05-02 20:41:35143 days 18 hrs ago0x0131bb1e8165b391f104ebb5b0a6df4b29fdc8f5OUT Ethereum: ETH Token0 BNB0.00022059
0xde4a5f880ad342c792e50fb751b24bbd63f4d36d593cf993300470a69e6051c5Approve70821372021-05-02 20:40:59143 days 18 hrs ago0x0131bb1e8165b391f104ebb5b0a6df4b29fdc8f5OUT Ramenswap: Ramen Token0 BNB0.000221135
0xc0e8ae5d4e85b7624033ba16ba8a0bdfbaf738baf99217faeea8f352bbe97c0aWithdraw All70820622021-05-02 20:37:14143 days 18 hrs ago0x0131bb1e8165b391f104ebb5b0a6df4b29fdc8f5OUT 0xc2eaf9290e1645d6b0687059a878c94469589d910 BNB0.000866635
0x3526d0b4cd5ae07eed797460d01c7e3d41aa58dc26848e2eefc1e798955c772a0x7c02520070256532021-04-30 21:14:23145 days 18 hrs ago0x0131bb1e8165b391f104ebb5b0a6df4b29fdc8f5OUT 1inch: Router V30 BNB0.00226558
0xf8b570d4c723deb08d8a561261a2fc336588e7339415718855d6d5c8d25c50f20x7c02520070256002021-04-30 21:11:44145 days 18 hrs ago0x0131bb1e8165b391f104ebb5b0a6df4b29fdc8f5OUT 1inch: Router V30 BNB0.001379085
0x4cb942e49ec39dc1d64cd19b5d2c377578236f1fafb8b8ecf2d6ca48bf106a4aApprove70255862021-04-30 21:11:02145 days 18 hrs ago0x0131bb1e8165b391f104ebb5b0a6df4b29fdc8f5OUT Helmet Insure: HELMET Token0 BNB0.000238235
0x3cde49d7d9622cbd9e02ab74cc90115507eb2bb34b0488d21d6d1b5bac3cdeeaDeposit66811712021-04-18 19:00:00157 days 20 hrs ago0x0131bb1e8165b391f104ebb5b0a6df4b29fdc8f5OUT 0x6db62e510a24600a373a4c3a918bad9ddaa9c3180 BNB0.00102575
[ Download CSV Export 
Latest 1 internal transaction
Parent Txn Hash Block From To Value
0x9dfd1a93b8a8a11bd68dccc1cf5ccfb96e139006531cb4d3921c68ace9e442e672186322021-05-07 16:29:51138 days 22 hrs ago 1inch v3: Router0x0131bb1e8165b391f104ebb5b0a6df4b29fdc8f50.03430455283424354 BNB
[ Download CSV Export 
Loading

Contract Name:
0 BNB

Compiler Version
0

Optimization Enabled:
0 BNB

Other Settings:
-NA-
Block Transaction Gas Used Reward
Age Block Fee Address BC Fee Address Voting Power Jailed Incoming
Block Uncle Number Difficulty Gas Used Reward
Loading
Loading
Make sure to use the "Vote Down" button for any spammy posts, and the "Vote Up" for interesting conversations.